createdAt,value
2022-11-04T00:00:38.076Z,14.21
2022-11-04T00:03:37.207Z,14.21
2022-11-04T00:06:25.227Z,14.21
2022-11-04T00:09:20.371Z,14.24
2022-11-04T00:12:21.417Z,14.26
2022-11-04T00:14:56.323Z,14.27
2022-11-04T00:17:32.410Z,14.27
2022-11-04T00:20:26.933Z,14.24
2022-11-04T00:23:23.516Z,14.24
2022-11-04T00:26:14.467Z,14.20
2022-11-04T00:28:49.219Z,14.19
2022-11-04T00:31:55.452Z,14.17
2022-11-04T00:34:33.672Z,14.16
2022-11-04T00:37:53.719Z,14.14
2022-11-04T00:40:30.384Z,14.08
2022-11-04T00:43:06.136Z,14.10
2022-11-04T00:45:38.367Z,14.12
2022-11-04T00:48:14.751Z,14.11
2022-11-04T00:50:44.788Z,14.10
2022-11-04T00:53:17.537Z,14.12
2022-11-04T00:55:48.434Z,14.12
2022-11-04T00:58:19.456Z,14.13
2022-11-04T01:00:49.062Z,14.15
2022-11-04T01:03:17.598Z,14.17
2022-11-04T01:05:45.289Z,14.18
2022-11-04T01:08:13.144Z,14.18
2022-11-04T01:10:44.788Z,14.16
2022-11-04T01:13:13.196Z,14.16
2022-11-04T01:15:41.203Z,14.14
2022-11-04T01:18:09.972Z,14.15
2022-11-04T01:20:38.014Z,14.15
2022-11-04T01:23:05.845Z,14.16
2022-11-04T01:25:33.386Z,14.19
2022-11-04T01:28:01.308Z,14.24
2022-11-04T01:30:29.290Z,14.26
2022-11-04T01:32:57.239Z,14.27
2022-11-04T01:35:24.904Z,14.28
2022-11-04T01:37:52.781Z,14.30
2022-11-04T01:40:20.368Z,14.32
2022-11-04T01:42:48.271Z,14.39
2022-11-04T01:45:18.880Z,14.42
2022-11-04T01:48:00.977Z,14.44
2022-11-04T01:50:32.298Z,14.43
2022-11-04T01:53:11.347Z,14.42
2022-11-04T01:55:51.344Z,14.41
2022-11-04T01:58:23.377Z,14.41
2022-11-04T02:00:51.629Z,14.40
2022-11-04T02:03:25.231Z,14.37
2022-11-04T02:05:54.089Z,14.38
2022-11-04T02:08:23.112Z,14.38
2022-11-04T02:11:06.879Z,14.38
2022-11-04T02:13:43.179Z,14.35
2022-11-04T02:16:39.611Z,14.38
2022-11-04T02:19:07.360Z,14.38
2022-11-04T02:22:06.958Z,14.37
2022-11-04T02:25:14.893Z,14.36
2022-11-04T02:28:13.918Z,14.33
2022-11-04T02:30:53.284Z,14.32
2022-11-04T02:33:34.372Z,14.31
2022-11-04T02:36:23.976Z,14.28
2022-11-04T02:39:42.121Z,14.29
2022-11-04T02:42:25.123Z,14.26
2022-11-04T02:45:21.190Z,14.23
2022-11-04T02:48:22.028Z,14.22
2022-11-04T02:50:57.161Z,14.19
2022-11-04T02:53:44.950Z,14.17
2022-11-04T02:56:14.960Z,14.17
2022-11-04T02:59:07.476Z,14.13
2022-11-04T03:01:40.096Z,14.11
2022-11-04T03:04:32.098Z,14.10
2022-11-04T03:07:02.841Z,14.10
2022-11-04T03:09:32.616Z,14.09
2022-11-04T03:12:06.903Z,14.09
2022-11-04T03:14:59.512Z,14.09
2022-11-04T03:17:39.501Z,14.10
2022-11-04T03:20:20.892Z,14.07
2022-11-04T03:22:48.741Z,14.04
2022-11-04T03:25:17.136Z,14.03
2022-11-04T03:27:51.012Z,14.02
2022-11-04T03:30:23.072Z,14.02
2022-11-04T03:33:27.298Z,14.03
2022-11-04T03:35:55.758Z,14.02
2022-11-04T03:38:23.743Z,13.99
2022-11-04T03:40:52.330Z,13.94
2022-11-04T03:43:28.741Z,13.93
2022-11-04T03:45:57.174Z,13.92
2022-11-04T03:48:24.900Z,13.91
2022-11-04T03:50:52.930Z,13.92
2022-11-04T03:56:48.849Z,13.93
2022-11-04T03:59:50.846Z,13.92
2022-11-04T04:02:47.895Z,13.91
2022-11-04T04:05:30.002Z,13.90
2022-11-04T04:08:03.174Z,13.92
2022-11-04T04:10:49.145Z,13.92
2022-11-04T04:13:37.428Z,13.88
2022-11-04T04:16:39.395Z,13.87
2022-11-04T04:19:19.614Z,13.86
2022-11-04T04:21:46.971Z,13.83
2022-11-04T04:24:38.732Z,13.83
2022-11-04T04:27:25.054Z,13.80
2022-11-04T04:29:54.052Z,13.79
2022-11-04T04:32:27.664Z,13.78
2022-11-04T04:35:15.743Z,13.79
2022-11-04T04:37:46.221Z,13.75
2022-11-04T04:40:38.896Z,13.73
2022-11-04T04:43:26.796Z,13.71
2022-11-04T04:45:57.100Z,13.69
2022-11-04T04:48:24.634Z,13.69
2022-11-04T04:50:57.078Z,13.71
2022-11-04T04:53:24.670Z,13.74
2022-11-04T04:55:52.531Z,13.81
2022-11-04T04:58:20.436Z,13.89
2022-11-04T05:00:48.377Z,13.94
2022-11-04T05:03:15.935Z,14.00
2022-11-04T05:05:43.937Z,14.07
2022-11-04T05:08:11.917Z,14.11
2022-11-04T05:10:40.069Z,14.13
2022-11-04T05:13:26.072Z,14.13
2022-11-04T05:15:54.266Z,14.13
2022-11-04T05:18:21.809Z,14.12
2022-11-04T05:20:49.704Z,14.14
2022-11-04T05:23:17.405Z,14.18
2022-11-04T05:25:45.282Z,14.20
2022-11-04T05:28:12.910Z,14.21
2022-11-04T05:30:40.930Z,14.24
2022-11-04T05:33:08.862Z,14.25
2022-11-04T05:35:36.845Z,14.28
2022-11-04T05:38:04.448Z,14.31
2022-11-04T05:40:32.452Z,14.33
2022-11-04T05:43:00.412Z,14.36
2022-11-04T05:45:29.083Z,14.38
2022-11-04T05:48:05.504Z,14.40
2022-11-04T05:50:34.786Z,14.40
2022-11-04T05:53:02.469Z,14.45
2022-11-04T05:55:30.275Z,14.50
2022-11-04T05:57:59.280Z,14.54
2022-11-04T06:00:28.117Z,14.55
2022-11-04T06:02:59.257Z,14.57
2022-11-04T06:05:28.226Z,14.57
2022-11-04T06:07:57.142Z,14.62
2022-11-04T06:10:25.709Z,14.63
2022-11-04T06:12:53.181Z,14.65
2022-11-04T06:15:21.015Z,14.68
2022-11-04T06:17:48.555Z,14.71
2022-11-04T06:20:16.570Z,14.74
2022-11-04T06:22:44.090Z,14.76
2022-11-04T06:25:12.006Z,14.78
2022-11-04T06:27:39.533Z,14.79
2022-11-04T06:30:08.331Z,14.82
2022-11-04T06:32:35.803Z,14.85
2022-11-04T06:35:03.664Z,14.87
2022-11-04T06:37:31.187Z,14.90
2022-11-04T06:39:59.060Z,14.95
2022-11-04T06:42:27.760Z,15.01
2022-11-04T06:44:55.579Z,15.05
2022-11-04T06:47:24.987Z,15.12
2022-11-04T06:49:53.136Z,15.20
2022-11-04T06:52:20.810Z,15.25
2022-11-04T06:54:48.620Z,15.29
2022-11-04T06:57:16.134Z,15.32
2022-11-04T06:59:43.997Z,15.37
2022-11-04T07:02:13.087Z,15.44
2022-11-04T07:04:41.071Z,15.53
2022-11-04T07:07:08.612Z,15.62
2022-11-04T07:09:36.601Z,15.68
2022-11-04T07:12:04.458Z,15.69
2022-11-04T07:14:32.253Z,15.75
2022-11-04T07:16:59.757Z,15.77
2022-11-04T07:19:27.603Z,15.83
2022-11-04T07:21:55.097Z,15.87
2022-11-04T07:24:23.014Z,15.93
2022-11-04T07:26:50.507Z,16.00
2022-11-04T07:29:18.651Z,16.06
2022-11-04T07:31:46.155Z,16.12
2022-11-04T07:34:13.954Z,16.19
2022-11-04T07:36:41.475Z,16.28
2022-11-04T07:39:09.374Z,16.35
2022-11-04T07:41:36.874Z,16.42
2022-11-04T07:44:05.671Z,16.50
2022-11-04T07:46:33.633Z,16.54
2022-11-04T07:49:01.434Z,16.61
2022-11-04T07:51:30.310Z,16.65
2022-11-04T07:53:58.812Z,16.69
2022-11-04T07:56:26.743Z,16.67
2022-11-04T07:58:54.536Z,16.67
2022-11-04T08:01:24.225Z,16.67
2022-11-04T08:03:52.869Z,16.69
2022-11-04T08:06:21.474Z,16.71
2022-11-04T08:08:49.408Z,16.72
2022-11-04T08:11:21.971Z,16.72
2022-11-04T08:13:50.192Z,16.73
2022-11-04T08:16:23.798Z,16.71
2022-11-04T08:18:52.873Z,16.68
2022-11-04T08:21:21.548Z,16.67
2022-11-04T08:23:51.541Z,16.66
2022-11-04T08:26:20.913Z,16.67
2022-11-04T08:28:49.860Z,16.72
2022-11-04T08:31:28.638Z,16.75
2022-11-04T08:33:57.775Z,16.79
2022-11-04T08:36:36.705Z,16.85
2022-11-04T08:39:10.375Z,16.92
2022-11-04T08:41:41.826Z,16.92
2022-11-04T08:44:11.946Z,16.94
2022-11-04T08:46:41.612Z,17.00
2022-11-04T08:49:10.765Z,17.10
2022-11-04T08:51:47.129Z,17.18
2022-11-04T08:54:15.867Z,17.25
2022-11-04T08:56:43.436Z,17.32
2022-11-04T08:59:11.538Z,17.35
2022-11-04T09:01:39.477Z,17.38
2022-11-04T09:04:08.015Z,17.44
2022-11-04T09:06:40.621Z,17.52
2022-11-04T09:09:11.919Z,17.61
2022-11-04T09:11:43.061Z,17.68
2022-11-04T09:14:12.252Z,17.73
2022-11-04T09:16:41.553Z,17.78
2022-11-04T09:19:09.824Z,17.81
2022-11-04T09:21:37.324Z,17.91
2022-11-04T09:24:07.422Z,17.99
2022-11-04T09:26:35.434Z,18.05
2022-11-04T09:29:03.511Z,18.12
2022-11-04T09:31:31.556Z,18.22
2022-11-04T09:33:59.559Z,18.30
2022-11-04T09:36:28.892Z,18.42
2022-11-04T09:38:57.188Z,18.53
2022-11-04T09:42:06.414Z,18.70
2022-11-04T09:45:21.207Z,18.83
2022-11-04T09:47:53.588Z,19.00
2022-11-04T09:50:37.175Z,19.10
2022-11-04T09:53:22.547Z,19.20
2022-11-04T09:56:04.939Z,19.28
2022-11-04T09:58:38.200Z,19.42
2022-11-04T10:01:46.661Z,19.53
2022-11-04T10:04:41.250Z,19.55
2022-11-04T10:08:09.374Z,19.60
2022-11-04T10:11:06.627Z,19.63
2022-11-04T10:13:46.941Z,19.67
2022-11-04T10:16:32.931Z,19.69
2022-11-04T10:19:35.134Z,19.76
2022-11-04T10:22:09.454Z,19.78
2022-11-04T10:25:00.132Z,19.87
2022-11-04T10:27:33.410Z,19.95
2022-11-04T10:30:15.840Z,20.03
2022-11-04T10:33:29.162Z,20.10
2022-11-04T10:36:09.229Z,20.13
2022-11-04T10:38:49.173Z,20.24
2022-11-04T10:41:38.243Z,20.33
2022-11-04T10:44:38.380Z,20.37
2022-11-04T10:47:31.300Z,20.42
2022-11-04T10:50:28.880Z,20.48
2022-11-04T10:53:15.355Z,20.49
2022-11-04T10:56:02.646Z,20.49
2022-11-04T10:58:39.571Z,20.49
2022-11-04T11:01:35.875Z,20.49
2022-11-04T11:04:08.720Z,20.43
2022-11-04T11:06:36.943Z,20.40
2022-11-04T11:09:39.767Z,20.38
2022-11-04T11:13:31.427Z,20.32
2022-11-04T11:30:25.866Z,20.23
2022-11-04T11:33:57.902Z,20.21
2022-11-04T11:36:51.599Z,20.22
2022-11-04T11:50:44.769Z,20.46
2022-11-04T11:54:51.808Z,20.59
2022-11-04T12:10:51.747Z,21.04
2022-11-04T12:13:56.772Z,21.04
2022-11-04T12:17:08.304Z,21.07
2022-11-04T12:20:49.584Z,21.09
2022-11-04T12:24:08.216Z,21.12
2022-11-04T13:03:19.313Z,20.92
2022-11-04T13:06:10.734Z,20.91
2022-11-04T13:08:54.346Z,20.86
2022-11-04T13:11:52.448Z,20.82
2022-11-04T13:14:37.208Z,20.75
2022-11-04T13:17:10.910Z,20.70
2022-11-04T13:19:50.431Z,20.65
2022-11-04T13:22:37.007Z,20.64
2022-11-04T13:25:25.737Z,20.64
2022-11-04T13:27:53.818Z,20.61
2022-11-04T13:30:56.969Z,20.60
2022-11-04T13:33:39.535Z,20.60
2022-11-04T13:36:42.497Z,20.62
2022-11-04T13:39:19.351Z,20.65
2022-11-04T13:42:27.832Z,20.65
2022-11-04T13:44:58.089Z,20.60
2022-11-04T13:47:35.118Z,20.53
2022-11-04T13:50:04.146Z,20.49
2022-11-04T13:52:34.457Z,20.48
2022-11-04T13:55:19.736Z,20.49
2022-11-04T13:57:55.850Z,20.47
2022-11-04T14:00:28.531Z,20.44
2022-11-04T14:03:00.326Z,20.40
2022-11-04T14:05:28.640Z,20.39
2022-11-04T14:08:02.026Z,20.36
2022-11-04T14:10:49.255Z,20.35
2022-11-04T14:13:37.736Z,20.34
2022-11-04T14:16:17.940Z,20.33
2022-11-04T14:18:48.398Z,20.32
2022-11-04T14:21:23.142Z,20.31
2022-11-04T14:24:00.209Z,20.30
2022-11-04T14:26:46.563Z,20.30
2022-11-04T14:29:28.144Z,20.27
2022-11-04T14:32:00.550Z,20.21
2022-11-04T14:34:37.166Z,20.13
2022-11-04T14:37:32.303Z,20.02
2022-11-04T14:40:04.438Z,19.95
2022-11-04T14:42:46.870Z,19.90
2022-11-04T14:45:33.787Z,19.81
2022-11-04T14:48:19.298Z,19.72
2022-11-04T14:50:53.103Z,19.68
2022-11-04T14:53:34.397Z,19.65
2022-11-04T14:56:26.961Z,19.63
2022-11-04T14:58:57.537Z,19.58
2022-11-04T15:01:34.262Z,19.52
2022-11-04T15:04:20.119Z,19.48
2022-11-04T15:07:03.157Z,19.46
2022-11-04T15:09:50.153Z,19.46
2022-11-04T15:12:39.129Z,19.45
2022-11-04T15:15:36.498Z,19.43
2022-11-04T15:18:07.714Z,19.40
2022-11-04T15:20:49.546Z,19.37
2022-11-04T15:23:33.363Z,19.33
2022-11-04T15:26:02.517Z,19.31
2022-11-04T15:28:47.534Z,19.29
2022-11-04T15:31:20.683Z,19.29
2022-11-04T15:33:57.834Z,19.29
2022-11-04T15:36:42.634Z,19.29
2022-11-04T15:39:31.704Z,19.28
2022-11-04T15:42:21.888Z,19.25
2022-11-04T15:44:55.441Z,19.24
2022-11-04T15:47:29.086Z,19.22
2022-11-04T15:50:26.357Z,19.21
2022-11-04T15:53:01.822Z,19.18
2022-11-04T15:55:35.078Z,19.14
2022-11-04T15:58:03.047Z,19.08
2022-11-04T16:00:31.445Z,19.06
2022-11-04T16:03:01.032Z,19.03
2022-11-04T16:05:38.536Z,18.98
2022-11-04T16:08:27.787Z,18.94
2022-11-04T16:11:17.516Z,18.91
2022-11-04T16:13:46.629Z,18.87
2022-11-04T16:16:25.726Z,18.87
2022-11-04T16:19:00.443Z,18.88
2022-11-04T16:21:36.094Z,18.90
2022-11-04T16:24:15.573Z,18.92
2022-11-04T16:26:45.559Z,18.92
2022-11-04T16:29:27.935Z,18.92
2022-11-04T16:32:19.969Z,18.94
2022-11-04T16:34:52.078Z,18.93
2022-11-04T16:37:19.733Z,18.92
2022-11-04T16:39:47.780Z,18.91
2022-11-04T16:42:16.875Z,18.90
2022-11-04T16:44:53.541Z,18.87
2022-11-04T16:47:21.312Z,18.87
2022-11-04T16:49:49.182Z,18.84
2022-11-04T16:52:25.589Z,18.84
2022-11-04T16:54:57.607Z,18.78
2022-11-04T16:57:26.122Z,18.75
2022-11-04T16:59:55.316Z,18.71
2022-11-04T17:02:31.630Z,18.65
2022-11-04T17:04:59.767Z,18.59
2022-11-04T17:07:47.417Z,18.54
2022-11-04T17:10:25.989Z,18.48
2022-11-04T17:12:53.782Z,18.43
2022-11-04T17:15:22.643Z,18.36
2022-11-04T17:17:50.444Z,18.28
2022-11-04T17:20:20.208Z,18.21
2022-11-04T17:22:48.962Z,18.14
2022-11-04T17:25:24.395Z,18.05
2022-11-04T17:27:52.502Z,17.98
2022-11-04T17:30:23.044Z,17.93
2022-11-04T17:32:51.399Z,17.87
2022-11-04T17:35:19.315Z,17.82
2022-11-04T17:37:47.101Z,17.75
2022-11-04T17:40:18.538Z,17.70
2022-11-04T17:43:11.269Z,17.67
2022-11-04T17:45:42.598Z,17.57
2022-11-04T17:48:11.360Z,17.52
2022-11-04T17:50:42.996Z,17.48
2022-11-04T17:53:10.884Z,17.45
2022-11-04T17:55:40.597Z,17.41
2022-11-04T17:58:08.683Z,17.37
2022-11-04T18:00:36.924Z,17.30
2022-11-04T18:03:06.741Z,17.28
2022-11-04T18:05:35.055Z,17.25
2022-11-04T18:08:02.572Z,17.23
2022-11-04T18:10:30.476Z,17.20
2022-11-04T18:12:57.954Z,17.19
2022-11-04T18:15:25.829Z,17.18
2022-11-04T18:17:53.583Z,17.15
2022-11-04T18:20:21.603Z,17.14
2022-11-04T18:22:49.136Z,17.10
2022-11-04T18:25:17.020Z,17.09
2022-11-04T18:27:44.878Z,17.06
2022-11-04T18:30:13.463Z,17.06
2022-11-04T18:32:41.018Z,17.05
2022-11-04T18:35:09.104Z,17.06
2022-11-04T18:37:36.781Z,17.06
2022-11-04T18:40:05.394Z,17.07
2022-11-04T18:42:33.261Z,17.06
2022-11-04T18:45:02.014Z,17.04
2022-11-04T18:47:29.561Z,17.05
2022-11-04T18:49:57.542Z,17.06
2022-11-04T18:52:25.214Z,17.08
2022-11-04T18:54:53.162Z,17.08
2022-11-04T18:57:20.889Z,17.10
2022-11-04T18:59:50.847Z,17.11
2022-11-04T19:02:23.691Z,17.12
2022-11-04T19:04:52.928Z,17.13
2022-11-04T19:07:20.600Z,17.10
2022-11-04T19:09:48.694Z,17.10
2022-11-04T19:12:35.975Z,17.09
2022-11-04T19:15:05.501Z,17.09
2022-11-04T19:17:34.906Z,17.09
2022-11-04T19:20:11.388Z,17.10
2022-11-04T19:22:40.917Z,17.09
2022-11-04T19:25:10.766Z,17.10
2022-11-04T19:27:38.544Z,17.12
2022-11-04T19:30:07.126Z,17.12
2022-11-04T19:32:34.706Z,17.10
2022-11-04T19:35:02.847Z,17.10
2022-11-04T19:37:31.402Z,17.09
2022-11-04T19:39:59.892Z,17.08
2022-11-04T19:42:46.404Z,17.10
2022-11-04T19:45:14.476Z,17.09
2022-11-04T19:47:42.023Z,17.10
2022-11-04T19:50:11.071Z,17.10
2022-11-04T19:52:39.059Z,17.12
2022-11-04T19:55:08.095Z,17.12
2022-11-04T19:57:35.895Z,17.10
2022-11-04T20:00:04.983Z,17.08
2022-11-04T20:02:39.224Z,17.07
2022-11-04T20:05:07.604Z,17.05
2022-11-04T20:07:35.178Z,17.05
2022-11-04T20:10:03.136Z,17.02
2022-11-04T20:12:49.332Z,17.00
2022-11-04T20:15:17.171Z,16.96
2022-11-04T20:17:44.787Z,16.95
2022-11-04T20:20:13.404Z,16.92
2022-11-04T20:22:41.044Z,16.90
2022-11-04T20:25:10.025Z,16.87
2022-11-04T20:27:38.871Z,16.87
2022-11-04T20:30:07.661Z,16.85
2022-11-04T20:32:35.361Z,16.86
2022-11-04T20:35:03.436Z,16.85
2022-11-04T20:37:31.044Z,16.82
2022-11-04T20:39:58.998Z,16.84
2022-11-04T20:42:26.525Z,16.83
2022-11-04T20:44:54.416Z,16.82
2022-11-04T20:47:22.367Z,16.80
2022-11-04T20:49:50.809Z,16.78
2022-11-04T20:52:18.779Z,16.76
2022-11-04T20:54:47.701Z,16.76
2022-11-04T20:57:15.251Z,16.76
2022-11-04T20:59:43.090Z,16.75
2022-11-04T21:02:12.032Z,16.75
2022-11-04T21:04:39.938Z,16.75
2022-11-04T21:07:07.527Z,16.70
2022-11-04T21:09:35.532Z,16.69
2022-11-04T21:12:03.579Z,16.69
2022-11-04T21:14:34.776Z,16.66
2022-11-04T21:17:07.086Z,16.66
2022-11-04T21:19:35.146Z,16.64
2022-11-04T21:22:02.737Z,16.64
2022-11-04T21:24:37.911Z,16.62
2022-11-04T21:27:07.706Z,16.62
2022-11-04T21:29:36.571Z,16.64
2022-11-04T21:32:04.364Z,16.64
2022-11-04T21:34:32.141Z,16.64
2022-11-04T21:36:59.794Z,16.66
2022-11-04T21:39:27.720Z,16.65
2022-11-04T21:41:55.999Z,16.65
2022-11-04T21:44:23.946Z,16.64
2022-11-04T21:46:51.650Z,16.64
2022-11-04T21:49:19.595Z,16.63
2022-11-04T21:51:47.102Z,16.65
2022-11-04T21:54:15.770Z,16.64
2022-11-04T21:56:43.326Z,16.62
2022-11-04T21:59:16.978Z,16.61
2022-11-04T22:01:48.169Z,16.61
2022-11-04T22:04:16.455Z,16.59
2022-11-04T22:06:45.447Z,16.58
2022-11-04T22:09:13.734Z,16.55
2022-11-04T22:11:45.580Z,16.57
2022-11-04T22:14:13.732Z,16.56
2022-11-04T22:16:41.414Z,16.56
2022-11-04T22:19:13.462Z,16.57
2022-11-04T22:21:44.775Z,16.57
2022-11-04T22:24:15.744Z,16.58
2022-11-04T22:26:44.816Z,16.58
2022-11-04T22:29:12.580Z,16.57
2022-11-04T22:31:42.729Z,16.52
2022-11-04T22:34:10.954Z,16.50
2022-11-04T22:36:38.619Z,16.51
2022-11-04T22:39:11.972Z,16.49
2022-11-04T22:41:43.793Z,16.50
2022-11-04T22:44:12.801Z,16.50
2022-11-04T22:46:41.023Z,16.55
2022-11-04T22:49:09.110Z,16.67
2022-11-04T22:51:37.326Z,16.79
2022-11-04T22:54:08.422Z,16.91
2022-11-04T22:56:37.417Z,17.05
2022-11-04T22:59:06.104Z,17.09
2022-11-04T23:01:34.427Z,17.11
2022-11-04T23:04:02.844Z,17.08
2022-11-04T23:06:31.742Z,17.06
2022-11-04T23:09:00.925Z,17.04
2022-11-04T23:11:49.758Z,16.99
2022-11-04T23:15:06.801Z,17.00
2022-11-04T23:18:02.272Z,17.00
2022-11-04T23:20:40.634Z,16.98
2022-11-04T23:23:33.856Z,16.98
2022-11-04T23:26:05.708Z,16.97
2022-11-04T23:28:58.875Z,16.97
2022-11-04T23:31:32.428Z,16.94
2022-11-04T23:34:32.784Z,16.89
2022-11-04T23:37:16.147Z,16.88
2022-11-04T23:39:52.301Z,16.74
2022-11-04T23:42:23.501Z,16.77
2022-11-04T23:45:16.993Z,16.77
2022-11-04T23:48:16.199Z,16.67
2022-11-04T23:51:08.320Z,16.64
2022-11-04T23:53:54.763Z,16.71
2022-11-04T23:56:41.164Z,16.77
2022-11-04T23:59:33.402Z,16.86
